createdAt,value
2018-06-14T00:00:22.770Z,61.00
2018-06-14T00:02:50.325Z,61.05
2018-06-14T00:05:17.903Z,60.99
2018-06-14T00:07:45.433Z,61.10
2018-06-14T00:10:13.027Z,60.63
2018-06-14T00:12:40.986Z,60.79
2018-06-14T00:15:09.575Z,61.17
2018-06-14T00:17:37.130Z,61.27
2018-06-14T00:20:05.136Z,61.15
2018-06-14T00:22:32.737Z,61.49
2018-06-14T00:25:00.309Z,61.46
2018-06-14T00:27:27.823Z,61.31
2018-06-14T00:29:55.875Z,61.33
2018-06-14T00:32:23.582Z,61.64
2018-06-14T00:34:51.106Z,61.34
2018-06-14T00:37:18.634Z,61.26
2018-06-14T00:39:46.181Z,61.31
2018-06-14T00:42:13.717Z,61.23
2018-06-14T00:44:41.342Z,60.60
2018-06-14T00:47:08.898Z,60.72
2018-06-14T00:49:36.414Z,60.64
2018-06-14T00:52:03.999Z,60.48
2018-06-14T00:54:31.551Z,60.73
2018-06-14T00:57:10.402Z,60.66
2018-06-14T00:59:37.950Z,60.40
2018-06-14T01:02:05.588Z,60.63
2018-06-14T01:04:33.134Z,60.70
2018-06-14T01:07:00.714Z,60.46
2018-06-14T01:09:28.226Z,59.94
2018-06-14T01:11:55.771Z,59.97
2018-06-14T01:14:23.318Z,60.49
2018-06-14T01:16:50.835Z,60.41
2018-06-14T01:19:18.382Z,60.04
2018-06-14T01:21:45.953Z,60.64
2018-06-14T01:24:13.519Z,60.48
2018-06-14T01:26:41.074Z,60.38
2018-06-14T01:29:08.645Z,61.00
2018-06-14T01:31:36.170Z,61.23
2018-06-14T01:34:03.682Z,61.33
2018-06-14T01:36:31.233Z,60.91
2018-06-14T01:38:58.740Z,60.64
2018-06-14T01:41:26.248Z,60.39
2018-06-14T01:43:53.838Z,60.57
2018-06-14T01:46:21.370Z,60.91
2018-06-14T01:48:48.899Z,60.86
2018-06-14T01:51:16.439Z,60.66
2018-06-14T01:53:43.970Z,61.17
2018-06-14T01:56:11.522Z,61.20
2018-06-14T01:58:39.077Z,60.96
2018-06-14T02:01:06.577Z,60.37
2018-06-14T02:03:34.090Z,60.58
2018-06-14T02:06:01.650Z,60.34
2018-06-14T02:08:29.226Z,59.71
2018-06-14T02:10:56.768Z,60.12
2018-06-14T02:13:24.301Z,60.12
2018-06-14T02:15:51.834Z,59.95
2018-06-14T02:18:19.477Z,60.22
2018-06-14T02:20:47.023Z,60.25
2018-06-14T02:23:14.521Z,60.18
2018-06-14T02:25:42.042Z,60.35
2018-06-14T02:28:09.622Z,60.72
2018-06-14T02:30:37.141Z,60.72
2018-06-14T02:33:04.870Z,61.01
2018-06-14T02:35:32.423Z,60.64
2018-06-14T02:38:00.014Z,60.70
2018-06-14T02:40:27.556Z,60.26
2018-06-14T02:42:55.178Z,60.44
2018-06-14T02:45:22.709Z,60.45
2018-06-14T02:47:50.228Z,60.57
2018-06-14T02:50:17.766Z,60.72
2018-06-14T02:52:45.295Z,60.66
2018-06-14T02:55:12.833Z,60.25
2018-06-14T02:57:40.417Z,60.60
2018-06-14T03:00:08.016Z,60.37
2018-06-14T03:02:35.554Z,60.21
2018-06-14T03:05:03.267Z,60.25
2018-06-14T03:07:34.912Z,59.90
2018-06-14T03:10:03.525Z,59.65
2018-06-14T03:12:31.254Z,59.74
2018-06-14T03:14:58.785Z,60.16
2018-06-14T03:17:26.353Z,60.21
2018-06-14T03:19:53.926Z,59.73
2018-06-14T03:22:22.795Z,59.81
2018-06-14T03:24:50.456Z,60.11
2018-06-14T03:27:17.977Z,59.35
2018-06-14T03:29:45.821Z,59.20
2018-06-14T03:32:13.641Z,59.65
2018-06-14T03:34:41.177Z,59.44
2018-06-14T03:37:09.494Z,59.51
2018-06-14T03:39:37.103Z,59.24
2018-06-14T03:42:05.642Z,59.21
2018-06-14T03:44:34.138Z,59.28
2018-06-14T03:47:02.119Z,59.05
2018-06-14T03:49:29.622Z,59.13
2018-06-14T03:51:57.144Z,59.07
2018-06-14T03:54:24.705Z,58.86
2018-06-14T03:56:52.240Z,58.64
2018-06-14T03:59:19.750Z,58.93
2018-06-14T04:01:47.302Z,58.99
2018-06-14T04:04:14.811Z,58.65
2018-06-14T04:06:42.323Z,58.72
2018-06-14T04:09:11.094Z,58.55
2018-06-14T04:11:38.751Z,58.61
2018-06-14T04:14:06.558Z,58.39
2018-06-14T04:16:34.550Z,58.59
2018-06-14T04:19:02.070Z,58.82
2018-06-14T04:21:29.594Z,59.43
2018-06-14T04:23:57.155Z,60.29
2018-06-14T04:26:24.778Z,60.65
2018-06-14T04:28:52.410Z,60.74
2018-06-14T04:31:19.986Z,60.87
2018-06-14T04:33:47.515Z,60.49
2018-06-14T04:36:15.100Z,59.98
2018-06-14T04:38:42.886Z,60.06
2018-06-14T04:41:10.426Z,60.57
2018-06-14T04:43:37.937Z,60.75
2018-06-14T04:46:05.762Z,60.48
2018-06-14T04:48:33.290Z,60.64
2018-06-14T04:51:00.800Z,60.31
2018-06-14T04:53:28.377Z,60.20
2018-06-14T04:55:56.002Z,60.21
2018-06-14T04:58:23.534Z,60.20
2018-06-14T05:00:51.123Z,60.01
2018-06-14T05:03:18.654Z,59.52
2018-06-14T05:05:46.243Z,59.42
2018-06-14T05:08:18.605Z,59.85
2018-06-14T05:10:46.120Z,60.39
2018-06-14T05:13:13.672Z,60.14
2018-06-14T05:15:41.369Z,60.05
2018-06-14T05:18:08.941Z,60.04
2018-06-14T05:20:36.462Z,59.89
2018-06-14T05:23:04.030Z,59.58
2018-06-14T05:25:31.570Z,59.59
2018-06-14T05:27:59.079Z,59.19
2018-06-14T05:30:26.629Z,59.21
2018-06-14T05:32:54.143Z,59.01
2018-06-14T05:35:21.680Z,59.46
2018-06-14T05:37:49.493Z,59.41
2018-06-14T05:40:17.010Z,59.10
2018-06-14T05:42:44.534Z,59.37
2018-06-14T05:45:12.086Z,58.81
2018-06-14T05:47:39.641Z,58.52
2018-06-14T05:50:07.175Z,58.58
2018-06-14T05:52:34.750Z,58.85
2018-06-14T05:55:02.310Z,57.61
2018-06-14T05:57:29.846Z,56.67
2018-06-14T05:59:57.397Z,56.52
2018-06-14T06:02:24.935Z,56.63
2018-06-14T06:04:52.534Z,56.37
2018-06-14T06:07:20.086Z,56.55
2018-06-14T06:09:47.614Z,56.23
2018-06-14T06:12:15.207Z,55.96
2018-06-14T06:14:42.767Z,56.18
2018-06-14T06:17:10.342Z,55.27
2018-06-14T06:19:37.878Z,55.54
2018-06-14T06:22:05.488Z,55.68
2018-06-14T06:24:33.011Z,56.45
2018-06-14T06:27:00.926Z,56.67
2018-06-14T06:29:28.501Z,56.03
2018-06-14T06:31:56.014Z,55.92
2018-06-14T06:34:23.522Z,56.45
2018-06-14T06:36:51.098Z,57.04
2018-06-14T06:39:18.661Z,56.91
2018-06-14T06:41:46.188Z,56.89
2018-06-14T06:44:13.756Z,57.06
2018-06-14T06:46:41.301Z,56.85
2018-06-14T06:49:08.818Z,56.58
2018-06-14T06:51:36.370Z,56.45
2018-06-14T06:54:03.897Z,56.37
2018-06-14T06:56:31.422Z,56.17
2018-06-14T06:58:59.004Z,55.88
2018-06-14T07:01:26.536Z,55.92
2018-06-14T07:03:54.059Z,56.13
2018-06-14T07:06:21.636Z,55.88
2018-06-14T07:08:49.541Z,55.95
2018-06-14T07:11:17.094Z,55.93
2018-06-14T07:13:44.649Z,55.81
2018-06-14T07:16:12.211Z,56.22
2018-06-14T07:18:39.761Z,56.15
2018-06-14T07:21:07.335Z,55.71
2018-06-14T07:23:34.874Z,55.14
2018-06-14T07:26:02.394Z,54.89
2018-06-14T07:28:29.960Z,55.33
2018-06-14T07:30:57.514Z,54.69
2018-06-14T07:33:25.050Z,55.19
2018-06-14T07:35:52.595Z,55.04
2018-06-14T07:38:20.118Z,53.95
2018-06-14T07:40:47.666Z,53.58
2018-06-14T07:43:15.231Z,52.09
2018-06-14T07:45:42.749Z,52.29
2018-06-14T07:48:10.256Z,52.21
2018-06-14T07:50:37.809Z,52.29
2018-06-14T07:53:05.325Z,51.87
2018-06-14T07:55:32.865Z,50.74
2018-06-14T07:58:00.410Z,50.31
2018-06-14T08:00:27.926Z,48.63
2018-06-14T08:02:55.450Z,48.33
2018-06-14T08:05:23.031Z,48.10
2018-06-14T08:07:50.571Z,47.84
2018-06-14T08:10:18.091Z,48.30
2018-06-14T08:12:45.654Z,47.89
2018-06-14T08:15:13.211Z,47.69
2018-06-14T08:17:40.742Z,48.17
2018-06-14T08:20:08.308Z,44.89
2018-06-14T08:22:35.830Z,45.16
2018-06-14T08:25:03.386Z,45.86
2018-06-14T08:27:30.951Z,44.26
2018-06-14T08:29:58.470Z,44.76
2018-06-14T08:32:26.007Z,44.05
2018-06-14T08:34:53.546Z,40.79
2018-06-14T08:37:25.637Z,42.00
2018-06-14T08:39:53.179Z,41.21
2018-06-14T08:42:20.726Z,42.20
2018-06-14T08:44:48.280Z,42.92
2018-06-14T08:47:15.831Z,41.82
2018-06-14T08:49:43.345Z,40.54
2018-06-14T08:52:10.874Z,41.66
2018-06-14T08:54:38.419Z,40.34
2018-06-14T08:57:06.015Z,40.20
2018-06-14T08:59:33.522Z,39.02
2018-06-14T09:02:01.075Z,41.23
2018-06-14T09:04:28.638Z,42.24
2018-06-14T09:06:56.182Z,42.68
2018-06-14T09:09:23.749Z,42.96
2018-06-14T09:11:51.314Z,43.65
2018-06-14T09:14:18.906Z,43.77
2018-06-14T09:16:46.426Z,44.56
2018-06-14T09:19:13.958Z,42.76
2018-06-14T09:21:41.492Z,43.17
2018-06-14T09:24:09.050Z,42.56
2018-06-14T09:29:10.938Z,42.26
2018-06-14T09:31:38.570Z,42.75
2018-06-14T09:34:06.139Z,42.27
2018-06-14T09:36:34.282Z,38.86
2018-06-14T09:39:01.898Z,39.81
2018-06-14T09:41:29.453Z,38.82
2018-06-14T09:43:57.010Z,38.78
2018-06-14T09:46:24.642Z,38.30
2018-06-14T09:48:57.617Z,37.98
2018-06-14T09:51:25.183Z,38.33
2018-06-14T09:53:52.734Z,37.33
2018-06-14T09:56:20.302Z,37.14
2018-06-14T09:58:47.811Z,36.51
2018-06-14T10:01:15.360Z,36.66
2018-06-14T10:03:42.935Z,35.68
2018-06-14T10:06:10.448Z,34.06
2018-06-14T10:08:37.966Z,33.78
2018-06-14T10:11:05.582Z,31.97
2018-06-14T10:13:33.094Z,34.04
2018-06-14T10:16:00.781Z,32.64
2018-06-14T10:18:28.326Z,33.19
2018-06-14T10:20:55.903Z,33.60
2018-06-14T10:23:23.413Z,33.18
2018-06-14T10:25:51.127Z,32.29
2018-06-14T10:28:18.666Z,33.28
2018-06-14T10:30:46.194Z,32.29
2018-06-14T10:33:13.818Z,32.54
2018-06-14T10:35:41.326Z,32.53
2018-06-14T10:38:09.077Z,31.33
2018-06-14T10:40:36.647Z,31.51
2018-06-14T10:43:05.390Z,31.66
2018-06-14T10:45:33.562Z,31.47
2018-06-14T10:48:01.451Z,30.68
2018-06-14T10:50:28.962Z,29.87
2018-06-14T10:52:56.504Z,25.97
2018-06-14T10:55:24.085Z,25.29
2018-06-14T10:57:51.658Z,24.27
2018-06-14T11:00:19.291Z,24.14
2018-06-14T11:02:46.845Z,23.46
2018-06-14T11:05:14.377Z,21.93
2018-06-14T11:07:41.898Z,21.53
2018-06-14T11:10:09.431Z,23.05
2018-06-14T11:12:36.954Z,24.11
2018-06-14T11:15:04.538Z,24.62
2018-06-14T11:17:32.078Z,24.00
2018-06-14T11:19:59.594Z,22.79
2018-06-14T11:22:27.086Z,23.52
2018-06-14T11:24:59.335Z,24.91
2018-06-14T11:27:26.881Z,25.17
2018-06-14T11:29:54.442Z,23.71
2018-06-14T11:32:22.009Z,24.32
2018-06-14T11:34:49.575Z,24.88
2018-06-14T11:37:17.166Z,26.46
2018-06-14T11:39:44.720Z,27.02
2018-06-14T11:42:12.250Z,24.22
2018-06-14T11:44:39.786Z,23.63
2018-06-14T11:47:07.334Z,22.11
2018-06-14T11:49:34.841Z,20.22
2018-06-14T11:52:02.346Z,19.64
2018-06-14T11:54:30.143Z,18.73
2018-06-14T11:56:57.679Z,18.55
2018-06-14T11:59:25.223Z,18.90
2018-06-14T12:01:52.830Z,19.35
2018-06-14T12:04:20.354Z,18.29
2018-06-14T12:06:47.869Z,17.64
2018-06-14T12:09:15.474Z,17.35
2018-06-14T12:11:43.021Z,17.47
2018-06-14T12:14:10.555Z,18.17
2018-06-14T12:16:38.094Z,17.95
2018-06-14T12:19:05.602Z,18.27
2018-06-14T12:21:33.107Z,19.79
2018-06-14T12:24:00.679Z,19.15
2018-06-14T12:26:28.383Z,18.84
2018-06-14T12:28:55.939Z,20.73
2018-06-14T12:31:23.507Z,19.27
2018-06-14T12:33:51.014Z,20.20
2018-06-14T12:36:18.530Z,21.17
2018-06-14T12:38:46.088Z,20.97
2018-06-14T12:41:13.590Z,17.98
2018-06-14T12:43:41.110Z,17.43
2018-06-14T12:46:08.667Z,16.03
2018-06-14T12:48:36.185Z,15.97
2018-06-14T12:51:03.710Z,16.87
2018-06-14T12:53:31.263Z,16.32
2018-06-14T12:55:58.790Z,16.54
2018-06-14T12:58:26.358Z,16.55
2018-06-14T13:00:53.913Z,16.31
2018-06-14T13:03:21.431Z,16.55
2018-06-14T13:05:48.954Z,16.49
2018-06-14T13:08:16.537Z,16.28
2018-06-14T13:10:44.062Z,16.18
2018-06-14T13:13:11.599Z,15.96
2018-06-14T13:15:39.147Z,17.54
2018-06-14T13:18:06.699Z,18.28
2018-06-14T13:20:34.218Z,17.69
2018-06-14T13:23:01.794Z,16.42
2018-06-14T13:25:29.401Z,16.09
2018-06-14T13:27:56.887Z,18.28
2018-06-14T13:30:24.466Z,19.49
2018-06-14T13:32:52.414Z,21.44
2018-06-14T13:35:19.934Z,21.31
2018-06-14T13:37:47.481Z,21.55
2018-06-14T13:40:14.997Z,20.64
2018-06-14T13:42:42.514Z,21.03
2018-06-14T13:45:10.078Z,21.17
2018-06-14T13:47:38.246Z,20.82
2018-06-14T13:50:05.779Z,18.10
2018-06-14T13:52:33.727Z,16.44
2018-06-14T13:55:01.262Z,17.23
2018-06-14T13:57:28.799Z,19.49
2018-06-14T13:59:56.425Z,21.81
2018-06-14T14:02:23.906Z,22.89
2018-06-14T14:04:51.406Z,24.29
2018-06-14T14:07:24.630Z,20.15
2018-06-14T14:09:52.149Z,18.20
2018-06-14T14:12:19.686Z,18.48
2018-06-14T14:14:47.247Z,17.81
2018-06-14T14:17:14.783Z,17.81
2018-06-14T14:19:42.310Z,17.56
2018-06-14T14:22:09.878Z,18.58
2018-06-14T14:24:37.403Z,18.58
2018-06-14T14:27:04.954Z,18.41
2018-06-14T14:29:32.481Z,18.16
2018-06-14T14:32:00.024Z,18.07
2018-06-14T14:34:27.558Z,17.48
2018-06-14T14:36:55.103Z,17.94
2018-06-14T14:39:22.659Z,18.77
2018-06-14T14:41:50.186Z,19.05
2018-06-14T14:44:17.749Z,19.34
2018-06-14T14:46:45.286Z,18.98
2018-06-14T14:49:12.817Z,19.98
2018-06-14T14:51:40.392Z,20.80
2018-06-14T14:54:07.927Z,21.77
2018-06-14T14:56:35.475Z,21.67
2018-06-14T14:59:03.094Z,22.61
2018-06-14T15:01:30.616Z,23.36
2018-06-14T15:03:58.154Z,25.06
2018-06-14T15:06:25.731Z,24.70
2018-06-14T15:08:53.253Z,24.67
2018-06-14T15:11:21.502Z,25.37
2018-06-14T15:13:49.098Z,25.72
2018-06-14T15:16:16.628Z,27.39
2018-06-14T15:18:44.169Z,28.16
2018-06-14T15:21:11.738Z,28.42
2018-06-14T15:23:39.264Z,29.02
2018-06-14T15:26:06.790Z,29.68
2018-06-14T15:28:34.363Z,29.77
2018-06-14T15:31:01.920Z,30.21
2018-06-14T15:33:29.458Z,30.98
2018-06-14T15:35:57.120Z,30.74
2018-06-14T15:38:24.679Z,31.17
2018-06-14T15:40:52.198Z,31.24
2018-06-14T15:43:19.755Z,31.24
2018-06-14T15:45:47.311Z,31.73
2018-06-14T15:48:14.895Z,31.77
2018-06-14T15:50:42.495Z,32.49
2018-06-14T15:53:10.038Z,32.47
2018-06-14T15:56:00.511Z,32.46
2018-06-14T15:58:28.555Z,33.46
2018-06-14T16:00:56.313Z,32.93
2018-06-14T16:03:24.666Z,32.72
2018-06-14T16:05:52.177Z,32.86
2018-06-14T16:08:19.749Z,33.17
2018-06-14T16:10:47.338Z,33.38
2018-06-14T16:13:14.890Z,32.26
2018-06-14T16:15:42.414Z,32.24
2018-06-14T16:18:09.971Z,32.74
2018-06-14T16:20:37.494Z,32.25
2018-06-14T16:23:05.189Z,32.96
2018-06-14T16:25:32.747Z,32.90
2018-06-14T16:28:00.299Z,32.97
2018-06-14T16:30:27.811Z,33.18
2018-06-14T16:32:55.359Z,34.48
2018-06-14T16:35:22.882Z,34.34
2018-06-14T16:37:50.501Z,35.10
2018-06-14T16:40:18.168Z,34.91
2018-06-14T16:42:45.738Z,35.57
2018-06-14T16:45:13.254Z,35.56
2018-06-14T16:47:41.270Z,36.29
2018-06-14T16:50:08.830Z,36.10
2018-06-14T16:52:36.401Z,35.70
2018-06-14T16:55:03.992Z,36.54
2018-06-14T16:57:31.529Z,36.30
2018-06-14T16:59:59.057Z,35.43
2018-06-14T17:02:26.713Z,35.40
2018-06-14T17:04:54.285Z,35.82
2018-06-14T17:07:21.819Z,36.20
2018-06-14T17:09:49.364Z,36.06
2018-06-14T17:12:16.899Z,36.25
2018-06-14T17:14:44.422Z,36.09
2018-06-14T17:17:11.986Z,36.52
2018-06-14T17:19:39.503Z,37.41
2018-06-14T17:22:07.090Z,36.77
2018-06-14T17:24:34.669Z,37.12
2018-06-14T17:27:02.202Z,37.34
2018-06-14T17:29:29.722Z,37.04
2018-06-14T17:31:57.270Z,37.03
2018-06-14T17:34:24.789Z,36.88
2018-06-14T17:36:52.325Z,37.16
2018-06-14T17:39:19.862Z,36.73
2018-06-14T17:41:48.622Z,37.19
2018-06-14T17:44:16.127Z,37.25
2018-06-14T17:46:43.706Z,37.30
2018-06-14T17:49:11.225Z,37.54
2018-06-14T17:51:38.759Z,37.13
2018-06-14T17:54:06.314Z,37.22
2018-06-14T17:56:33.856Z,36.93
2018-06-14T17:59:01.408Z,36.51
2018-06-14T18:01:29.017Z,36.19
2018-06-14T18:03:56.517Z,37.06
2018-06-14T18:06:24.079Z,36.65
2018-06-14T18:08:51.618Z,36.44
2018-06-14T18:11:19.154Z,36.46
2018-06-14T18:13:46.682Z,36.98
2018-06-14T18:16:14.224Z,37.17
2018-06-14T18:18:41.778Z,37.73
2018-06-14T18:21:09.286Z,37.36
2018-06-14T18:23:36.858Z,37.13
2018-06-14T18:26:04.386Z,37.74
2018-06-14T18:28:31.904Z,37.67
2018-06-14T18:30:59.485Z,38.09
2018-06-14T18:33:27.019Z,37.67
2018-06-14T18:35:54.538Z,38.10
2018-06-14T18:38:22.087Z,38.31
2018-06-14T18:40:49.595Z,38.62
2018-06-14T18:43:17.122Z,38.11
2018-06-14T18:45:44.679Z,38.46
2018-06-14T18:48:12.229Z,38.26
2018-06-14T18:50:39.771Z,38.51
2018-06-14T18:53:07.326Z,39.42
2018-06-14T18:55:35.405Z,38.17
2018-06-14T18:58:07.049Z,38.71
2018-06-14T19:00:38.714Z,40.27
2018-06-14T19:03:07.102Z,40.74
2018-06-14T19:05:34.756Z,42.62
2018-06-14T19:08:02.298Z,43.98
2018-06-14T19:10:29.838Z,44.18
2018-06-14T19:12:57.370Z,44.65
2018-06-14T19:15:24.903Z,44.74
2018-06-14T19:17:52.459Z,44.70
2018-06-14T19:20:19.978Z,45.06
2018-06-14T19:22:47.503Z,45.31
2018-06-14T19:25:15.083Z,45.15
2018-06-14T19:27:42.606Z,45.68
2018-06-14T19:30:10.166Z,45.86
2018-06-14T19:32:37.714Z,46.06
2018-06-14T19:35:05.434Z,46.26
2018-06-14T19:37:32.967Z,46.35
2018-06-14T19:40:00.618Z,47.27
2018-06-14T19:42:28.141Z,47.29
2018-06-14T19:44:55.667Z,47.84
2018-06-14T19:47:23.222Z,47.78
2018-06-14T19:49:50.744Z,48.27
2018-06-14T19:52:18.266Z,48.37
2018-06-14T19:54:45.882Z,48.12
2018-06-14T19:57:13.440Z,48.17
2018-06-14T19:59:40.950Z,48.20
2018-06-14T20:02:08.546Z,47.96
2018-06-14T20:04:37.238Z,47.64
2018-06-14T20:07:04.806Z,48.17
2018-06-14T20:09:32.351Z,48.88
2018-06-14T20:11:59.866Z,49.25
2018-06-14T20:14:27.421Z,49.27
2018-06-14T20:16:55.019Z,49.24
2018-06-14T20:19:22.546Z,49.57
2018-06-14T20:21:50.071Z,49.57
2018-06-14T20:24:17.620Z,49.72
2018-06-14T20:26:45.147Z,49.77
2018-06-14T20:29:12.670Z,49.67
2018-06-14T20:31:40.300Z,50.24
2018-06-14T20:34:07.990Z,50.23
2018-06-14T20:36:35.573Z,50.94
2018-06-14T20:39:03.898Z,50.70
2018-06-14T20:41:31.437Z,50.40
2018-06-14T20:43:58.982Z,50.78
2018-06-14T20:46:26.566Z,51.30
2018-06-14T20:48:54.230Z,51.20
2018-06-14T20:51:21.754Z,51.56
2018-06-14T20:53:49.321Z,51.89
2018-06-14T20:56:16.845Z,51.99
2018-06-14T20:58:44.365Z,51.85
2018-06-14T21:01:11.939Z,51.73
2018-06-14T21:03:40.306Z,51.66
2018-06-14T21:06:08.536Z,51.95
2018-06-14T21:08:36.098Z,52.06
2018-06-14T21:11:03.700Z,51.87
2018-06-14T21:13:31.478Z,52.52
2018-06-14T21:15:59.074Z,52.75
2018-06-14T21:18:26.594Z,52.83
2018-06-14T21:20:54.116Z,52.49
2018-06-14T21:23:21.654Z,52.44
2018-06-14T21:25:49.179Z,52.78
2018-06-14T21:28:16.926Z,53.07
2018-06-14T21:30:44.511Z,52.99
2018-06-14T21:33:12.048Z,53.04
2018-06-14T21:35:39.637Z,53.33
2018-06-14T21:38:07.234Z,53.29
2018-06-14T21:40:34.847Z,53.94
2018-06-14T21:43:02.429Z,53.54
2018-06-14T21:45:30.297Z,53.06
2018-06-14T21:47:57.899Z,53.80
2018-06-14T21:50:25.529Z,53.65
2018-06-14T21:52:53.100Z,53.41
2018-06-14T21:55:20.610Z,53.55
2018-06-14T21:57:48.230Z,53.71
2018-06-14T22:00:15.794Z,53.81
2018-06-14T22:02:48.695Z,54.02
2018-06-14T22:05:16.975Z,53.70
2018-06-14T22:07:44.519Z,54.05
2018-06-14T22:10:12.070Z,53.70
2018-06-14T22:12:39.660Z,54.09
2018-06-14T22:15:07.231Z,53.71
2018-06-14T22:17:34.762Z,54.07
2018-06-14T22:20:02.439Z,53.95
2018-06-14T22:22:30.055Z,53.95
2018-06-14T22:24:57.574Z,54.43
2018-06-14T22:27:25.178Z,54.33
2018-06-14T22:29:53.038Z,53.41
2018-06-14T22:32:20.566Z,54.11
2018-06-14T22:34:59.327Z,53.56
2018-06-14T22:37:26.906Z,53.91
2018-06-14T22:39:54.439Z,54.37
2018-06-14T22:42:22.018Z,53.59
2018-06-14T22:44:49.551Z,53.93
2018-06-14T22:47:17.070Z,53.49
2018-06-14T22:49:44.786Z,54.54
2018-06-14T22:53:15.786Z,54.53
2018-06-14T22:55:43.349Z,54.83
2018-06-14T22:58:10.894Z,55.04
2018-06-14T23:01:45.326Z,55.24
2018-06-14T23:04:15.083Z,55.44
2018-06-14T23:06:42.631Z,55.51
2018-06-14T23:10:25.182Z,55.17
2018-06-14T23:12:52.720Z,54.61
2018-06-14T23:15:20.444Z,55.57
2018-06-14T23:17:48.631Z,54.35
2018-06-14T23:20:17.190Z,54.29
2018-06-14T23:22:45.909Z,54.49
2018-06-14T23:25:13.466Z,54.50
2018-06-14T23:27:41.229Z,54.68
2018-06-14T23:30:08.822Z,54.47
2018-06-14T23:32:36.396Z,54.89
2018-06-14T23:35:03.964Z,54.38
2018-06-14T23:37:31.486Z,54.32
2018-06-14T23:39:59.029Z,54.21
2018-06-14T23:42:26.553Z,54.16
2018-06-14T23:44:55.553Z,53.89
2018-06-14T23:47:23.154Z,54.29
2018-06-14T23:49:50.733Z,54.51
2018-06-14T23:52:18.299Z,54.61
2018-06-14T23:54:46.269Z,54.51
2018-06-14T23:57:13.818Z,54.54
2018-06-14T23:59:41.472Z,54.56
